createdAt,value
2022-07-31T00:00:28.447Z,5.22
2022-07-31T00:02:56.857Z,5.55
2022-07-31T00:05:25.777Z,5.22
2022-07-31T00:07:54.949Z,5.03
2022-07-31T00:10:23.111Z,5.35
2022-07-31T00:12:53.031Z,5.35
2022-07-31T00:15:21.908Z,4.75
2022-07-31T00:17:50.850Z,5.80
2022-07-31T00:20:20.769Z,6.22
2022-07-31T00:22:50.499Z,5.70
2022-07-31T00:25:19.739Z,7.93
2022-07-31T00:27:48.241Z,5.65
2022-07-31T00:30:17.983Z,5.70
2022-07-31T00:32:47.118Z,7.60
2022-07-31T00:35:17.327Z,5.22
2022-07-31T00:37:45.779Z,6.70
2022-07-31T00:40:16.072Z,5.72
2022-07-31T00:42:44.281Z,6.47
2022-07-31T00:45:13.442Z,5.97
2022-07-31T00:47:44.094Z,6.28
2022-07-31T00:50:13.329Z,5.80
2022-07-31T00:52:43.362Z,5.75
2022-07-31T00:55:11.574Z,7.25
2022-07-31T00:57:39.975Z,6.38
2022-07-31T01:00:09.185Z,6.18
2022-07-31T01:02:38.445Z,6.45
2022-07-31T01:05:18.947Z,6.45
2022-07-31T01:07:48.847Z,6.38
2022-07-31T01:10:36.049Z,7.85
2022-07-31T01:13:09.372Z,7.63
2022-07-31T01:15:39.985Z,6.40
2022-07-31T01:18:09.088Z,6.68
2022-07-31T01:20:42.827Z,7.32
2022-07-31T01:23:35.915Z,6.93
2022-07-31T01:26:44.926Z,6.47
2022-07-31T01:29:21.645Z,7.10
2022-07-31T01:34:26.806Z,6.97
2022-07-31T01:37:04.059Z,7.22
2022-07-31T01:39:34.917Z,6.97
2022-07-31T01:42:06.337Z,6.78
2022-07-31T01:44:43.474Z,7.25
2022-07-31T01:47:16.057Z,7.45
2022-07-31T01:49:46.152Z,7.38
2022-07-31T01:52:16.305Z,6.93
2022-07-31T01:54:46.253Z,7.55
2022-07-31T01:57:17.341Z,7.43
2022-07-31T01:59:56.285Z,8.15
2022-07-31T02:02:54.468Z,7.28
2022-07-31T02:05:24.153Z,7.68
2022-07-31T02:07:54.253Z,7.78
2022-07-31T02:10:26.178Z,7.47
2022-07-31T02:12:55.175Z,6.70
2022-07-31T02:15:25.650Z,7.75
2022-07-31T02:17:55.594Z,7.88
2022-07-31T02:20:24.931Z,7.35
2022-07-31T02:22:57.975Z,7.35
2022-07-31T02:25:27.777Z,8.32
2022-07-31T02:27:59.266Z,7.35
2022-07-31T02:30:38.850Z,7.97
2022-07-31T02:33:11.097Z,10.10
2022-07-31T02:35:44.106Z,8.00
2022-07-31T02:40:54.210Z,7.53
2022-07-31T02:43:22.839Z,8.82
2022-07-31T02:45:52.861Z,8.82
2022-07-31T02:48:21.328Z,7.28
2022-07-31T02:50:51.054Z,8.05
2022-07-31T02:53:19.835Z,11.02
2022-07-31T02:55:51.790Z,8.27
2022-07-31T02:58:20.178Z,7.85
2022-07-31T03:00:48.767Z,8.07
2022-07-31T03:03:19.755Z,7.53
2022-07-31T03:05:48.112Z,7.13
2022-07-31T03:08:19.338Z,8.38
2022-07-31T03:10:52.477Z,7.85
2022-07-31T03:13:23.664Z,8.40
2022-07-31T03:15:53.693Z,7.28
2022-07-31T03:18:23.998Z,7.57
2022-07-31T03:20:53.140Z,7.75
2022-07-31T03:23:23.777Z,7.90
2022-07-31T03:25:58.271Z,7.28
2022-07-31T03:28:26.458Z,7.63
2022-07-31T03:30:56.666Z,9.32
2022-07-31T03:33:29.081Z,8.23
2022-07-31T03:35:58.014Z,8.05
2022-07-31T03:38:39.464Z,9.07
2022-07-31T03:41:26.100Z,9.70
2022-07-31T03:43:55.366Z,8.95
2022-07-31T03:46:24.933Z,7.82
2022-07-31T03:48:54.913Z,7.18
2022-07-31T03:51:26.652Z,9.98
2022-07-31T03:53:55.633Z,9.05
2022-07-31T03:56:49.452Z,8.40
2022-07-31T03:59:21.675Z,10.07
2022-07-31T04:01:58.331Z,9.50
2022-07-31T04:04:50.583Z,8.35
2022-07-31T04:07:18.615Z,7.63
2022-07-31T04:09:47.132Z,8.02
2022-07-31T04:12:16.581Z,8.55
2022-07-31T04:14:44.937Z,8.02
2022-07-31T04:17:13.123Z,8.82
2022-07-31T04:19:42.086Z,7.97
2022-07-31T04:22:11.900Z,8.77
2022-07-31T04:24:40.787Z,9.60
2022-07-31T04:27:27.327Z,11.15
2022-07-31T04:29:57.501Z,8.57
2022-07-31T04:32:25.778Z,9.68
2022-07-31T04:34:56.622Z,8.90
2022-07-31T04:37:26.627Z,10.43
2022-07-31T04:39:55.216Z,8.88
2022-07-31T04:42:23.352Z,9.70
2022-07-31T04:44:52.095Z,10.15
2022-07-31T04:47:22.807Z,9.57
2022-07-31T04:49:52.572Z,9.90
2022-07-31T04:52:20.998Z,10.18
2022-07-31T04:54:52.656Z,11.05
2022-07-31T04:57:22.131Z,9.82
2022-07-31T04:59:59.434Z,10.55
2022-07-31T05:02:30.637Z,9.27
2022-07-31T05:04:58.955Z,9.68
2022-07-31T05:07:53.574Z,10.00
2022-07-31T05:10:45.329Z,9.52
2022-07-31T05:13:16.078Z,10.02
2022-07-31T05:15:44.866Z,9.63
2022-07-31T05:18:13.101Z,9.80
2022-07-31T05:21:04.210Z,9.77
2022-07-31T05:23:38.969Z,9.73
2022-07-31T05:26:32.011Z,9.73
2022-07-31T05:29:02.121Z,10.00
2022-07-31T05:31:30.408Z,9.38
2022-07-31T05:33:59.401Z,9.27
2022-07-31T05:36:28.147Z,9.68
2022-07-31T05:38:56.216Z,10.07
2022-07-31T05:41:46.042Z,9.45
2022-07-31T05:44:49.567Z,10.00
2022-07-31T05:47:18.252Z,9.75
2022-07-31T05:49:46.479Z,10.27
2022-07-31T05:52:14.502Z,9.63
2022-07-31T05:54:45.712Z,9.90
2022-07-31T05:57:50.609Z,8.18
2022-07-31T06:00:19.184Z,9.48
2022-07-31T06:02:47.272Z,9.40
2022-07-31T06:05:35.607Z,9.90
2022-07-31T06:08:05.288Z,9.32
2022-07-31T06:10:38.992Z,8.73
2022-07-31T06:13:08.715Z,9.85
2022-07-31T06:15:37.035Z,9.52
2022-07-31T06:18:09.366Z,11.23
2022-07-31T06:20:38.608Z,10.48
2022-07-31T06:23:20.047Z,10.30
2022-07-31T06:26:02.606Z,8.85
2022-07-31T06:28:47.498Z,9.30
2022-07-31T06:33:48.555Z,8.23
2022-07-31T06:36:19.439Z,8.77
2022-07-31T06:38:56.715Z,9.25
2022-07-31T06:41:47.385Z,9.13
2022-07-31T06:44:34.012Z,9.27
2022-07-31T06:47:22.539Z,9.27
2022-07-31T06:50:09.548Z,9.73
2022-07-31T06:52:47.143Z,9.40
2022-07-31T06:55:15.440Z,9.50
2022-07-31T06:57:43.705Z,8.45
2022-07-31T07:00:20.359Z,9.50
2022-07-31T07:02:49.326Z,11.10
2022-07-31T07:05:17.448Z,8.45
2022-07-31T07:07:48.216Z,8.43
2022-07-31T07:10:16.669Z,8.35
2022-07-31T07:12:59.556Z,9.88
2022-07-31T07:15:31.878Z,10.00
2022-07-31T07:18:00.009Z,9.63
2022-07-31T07:20:45.410Z,9.15
2022-07-31T07:23:13.771Z,9.05
2022-07-31T07:25:54.880Z,9.68
2022-07-31T07:28:30.756Z,8.45
2022-07-31T07:31:05.674Z,8.50
2022-07-31T07:33:41.856Z,8.57
2022-07-31T07:36:24.189Z,8.13
2022-07-31T07:39:10.217Z,7.13
2022-07-31T07:41:39.070Z,7.63
2022-07-31T07:44:07.972Z,7.43
2022-07-31T07:46:37.370Z,8.00
2022-07-31T07:49:08.030Z,6.60
2022-07-31T07:52:00.126Z,7.65
2022-07-31T07:54:40.998Z,7.70
2022-07-31T07:57:16.012Z,7.85
2022-07-31T07:59:53.353Z,6.38
2022-07-31T08:02:44.703Z,5.95
2022-07-31T08:05:15.082Z,6.07
2022-07-31T08:07:44.832Z,6.20
2022-07-31T08:10:41.031Z,6.00
2022-07-31T08:13:26.441Z,6.25
2022-07-31T08:16:12.751Z,6.28
2022-07-31T08:18:47.556Z,7.03
2022-07-31T08:21:15.984Z,5.70
2022-07-31T08:23:43.986Z,5.10
2022-07-31T08:26:13.956Z,6.90
2022-07-31T08:28:50.117Z,5.22
2022-07-31T08:31:20.518Z,6.85
2022-07-31T08:34:08.713Z,4.80
2022-07-31T08:36:38.646Z,5.03
2022-07-31T08:39:07.661Z,7.95
2022-07-31T08:41:48.595Z,5.78
2022-07-31T08:44:17.112Z,5.50
2022-07-31T08:46:57.985Z,4.70
2022-07-31T08:49:29.564Z,5.32
2022-07-31T08:52:00.345Z,4.93
2022-07-31T08:54:56.564Z,5.20
2022-07-31T08:57:27.098Z,4.88
2022-07-31T08:59:55.476Z,5.80
2022-07-31T09:02:24.525Z,4.10
2022-07-31T09:05:13.350Z,5.05
2022-07-31T09:07:42.814Z,6.22
2022-07-31T09:10:25.428Z,5.95
2022-07-31T09:12:54.875Z,4.68
2022-07-31T09:15:26.107Z,3.85
2022-07-31T09:17:54.783Z,4.32
2022-07-31T09:20:26.644Z,5.05
2022-07-31T09:23:06.065Z,6.00
2022-07-31T09:25:36.142Z,4.55
2022-07-31T09:28:06.061Z,3.85
2022-07-31T09:30:36.031Z,4.40
2022-07-31T09:33:48.014Z,5.40
2022-07-31T09:36:36.172Z,5.32
2022-07-31T09:39:26.829Z,5.30
2022-07-31T09:42:17.279Z,4.60
2022-07-31T09:45:28.851Z,4.75
2022-07-31T09:48:08.306Z,4.63
2022-07-31T09:50:40.639Z,5.07
2022-07-31T09:53:10.206Z,4.60
2022-07-31T09:55:51.002Z,4.72
2022-07-31T09:58:19.884Z,4.78
2022-07-31T10:00:48.973Z,4.50
2022-07-31T10:03:18.804Z,4.57
2022-07-31T10:05:48.578Z,5.25
2022-07-31T10:08:18.799Z,4.25
2022-07-31T10:11:07.512Z,5.53
2022-07-31T10:13:57.567Z,4.20
2022-07-31T10:16:29.197Z,6.03
2022-07-31T10:19:36.056Z,5.57
2022-07-31T10:22:29.882Z,4.00
2022-07-31T10:25:02.560Z,4.63
2022-07-31T10:27:33.781Z,3.88
2022-07-31T10:30:11.337Z,4.72
2022-07-31T10:32:45.122Z,4.80
2022-07-31T10:35:35.142Z,3.15
2022-07-31T10:41:08.952Z,3.88
2022-07-31T10:43:45.151Z,4.20
2022-07-31T10:46:31.982Z,4.63
2022-07-31T10:49:38.707Z,4.32
2022-07-31T10:52:34.685Z,3.53
2022-07-31T10:55:19.286Z,4.32
2022-07-31T10:58:12.799Z,3.75
2022-07-31T11:00:54.042Z,4.03
2022-07-31T11:03:24.057Z,4.15
2022-07-31T11:06:11.017Z,4.47
2022-07-31T11:08:59.692Z,3.83
2022-07-31T11:11:43.871Z,3.65
2022-07-31T11:14:38.942Z,3.97
2022-07-31T11:18:22.482Z,3.17
2022-07-31T11:20:28.513Z,5.03
2022-07-31T11:22:59.145Z,3.03
2022-07-31T11:25:30.502Z,4.40
2022-07-31T11:27:59.468Z,3.55
2022-07-31T11:30:29.106Z,3.10
2022-07-31T11:32:57.242Z,3.70
2022-07-31T11:35:26.821Z,2.97
2022-07-31T11:37:57.063Z,3.22
2022-07-31T11:40:28.227Z,2.90
2022-07-31T11:43:27.217Z,3.13
2022-07-31T11:45:51.530Z,2.50
2022-07-31T11:48:20.663Z,3.42
2022-07-31T11:50:49.812Z,2.88
2022-07-31T11:53:18.613Z,2.47
2022-07-31T11:55:51.502Z,3.72
2022-07-31T11:58:21.311Z,4.03
2022-07-31T12:00:53.275Z,2.40
2022-07-31T12:03:23.384Z,2.90
2022-07-31T12:05:53.507Z,2.00
2022-07-31T12:08:23.616Z,2.80
2022-07-31T12:10:54.207Z,3.35
2022-07-31T12:13:23.335Z,1.80
2022-07-31T12:16:00.963Z,1.90
2022-07-31T12:18:30.203Z,2.17
2022-07-31T12:21:01.031Z,3.30
2022-07-31T12:23:41.829Z,1.55
2022-07-31T12:26:14.070Z,1.73
2022-07-31T12:28:43.692Z,1.67
2022-07-31T12:31:13.758Z,2.63
2022-07-31T12:33:43.308Z,2.13
2022-07-31T12:36:16.329Z,1.80
2022-07-31T12:38:49.126Z,2.25
2022-07-31T12:41:18.109Z,3.20
2022-07-31T12:43:52.032Z,1.90
2022-07-31T12:46:24.210Z,2.58
2022-07-31T12:48:52.426Z,2.42
2022-07-31T12:51:46.372Z,2.17
2022-07-31T12:54:10.083Z,3.08
2022-07-31T12:56:39.462Z,3.40
2022-07-31T12:59:08.106Z,2.70
2022-07-31T13:01:38.182Z,2.83
2022-07-31T13:04:08.007Z,2.75
2022-07-31T13:06:48.648Z,2.60
2022-07-31T13:09:18.138Z,2.40
2022-07-31T13:11:48.334Z,2.33
2022-07-31T13:14:17.123Z,2.08
2022-07-31T13:16:46.974Z,4.32
2022-07-31T13:19:15.591Z,2.30
2022-07-31T13:21:49.347Z,2.17
2022-07-31T13:24:19.807Z,1.83
2022-07-31T13:26:48.318Z,2.97
2022-07-31T13:29:16.869Z,3.00
2022-07-31T13:31:46.674Z,2.50
2022-07-31T13:34:14.868Z,3.17
2022-07-31T13:36:43.176Z,2.38
2022-07-31T13:39:11.558Z,3.05
2022-07-31T13:41:40.024Z,4.03
2022-07-31T13:44:09.486Z,2.10
2022-07-31T13:46:37.828Z,2.30
2022-07-31T13:49:10.395Z,1.80
2022-07-31T13:51:39.298Z,1.80
2022-07-31T13:54:07.564Z,4.18
2022-07-31T13:56:42.822Z,2.78
2022-07-31T13:59:13.701Z,1.35
2022-07-31T14:02:03.258Z,3.03
2022-07-31T14:04:38.378Z,2.33
2022-07-31T14:07:08.999Z,2.28
2022-07-31T14:09:37.669Z,1.48
2022-07-31T14:12:06.824Z,2.78
2022-07-31T14:14:35.512Z,2.63
2022-07-31T14:17:03.717Z,2.20
2022-07-31T14:19:41.905Z,1.70
2022-07-31T14:22:14.260Z,2.05
2022-07-31T14:24:45.645Z,3.40
2022-07-31T14:27:21.892Z,3.45
2022-07-31T14:29:50.104Z,3.13
2022-07-31T14:32:19.272Z,1.90
2022-07-31T14:34:48.887Z,1.95
2022-07-31T14:37:16.988Z,2.05
2022-07-31T14:39:45.419Z,2.03
2022-07-31T14:42:13.679Z,1.83
2022-07-31T14:44:42.712Z,2.30
2022-07-31T14:47:11.285Z,2.30
2022-07-31T14:50:09.152Z,2.75
2022-07-31T14:52:29.012Z,1.92
2022-07-31T14:54:59.526Z,2.83
2022-07-31T14:57:27.927Z,2.05
2022-07-31T14:59:55.926Z,1.85
2022-07-31T15:02:24.219Z,3.50
2022-07-31T15:04:52.801Z,2.28
2022-07-31T15:07:41.277Z,2.35
2022-07-31T15:10:12.803Z,1.90
2022-07-31T15:12:41.270Z,2.55
2022-07-31T15:15:10.438Z,2.83
2022-07-31T15:17:38.598Z,2.63
2022-07-31T15:20:07.822Z,3.30
2022-07-31T15:22:36.115Z,3.63
2022-07-31T15:25:04.277Z,1.65
2022-07-31T15:27:33.891Z,2.65
2022-07-31T15:30:06.368Z,3.70
2022-07-31T15:32:36.709Z,2.15
2022-07-31T15:35:05.924Z,3.38
2022-07-31T15:37:36.496Z,1.88
2022-07-31T15:40:06.318Z,2.85
2022-07-31T15:42:40.237Z,2.30
2022-07-31T15:45:11.946Z,3.83
2022-07-31T15:47:41.152Z,1.58
2022-07-31T15:50:10.993Z,2.03
2022-07-31T15:52:39.389Z,1.98
2022-07-31T15:55:09.010Z,2.10
2022-07-31T15:57:38.499Z,2.15
2022-07-31T16:00:09.983Z,1.60
2022-07-31T16:02:42.582Z,4.18
2022-07-31T16:05:22.208Z,2.38
2022-07-31T16:08:28.477Z,1.88
2022-07-31T16:10:53.956Z,1.50
2022-07-31T16:13:24.077Z,1.30
2022-07-31T16:15:53.604Z,1.67
2022-07-31T16:18:22.249Z,2.42
2022-07-31T16:20:50.272Z,1.88
2022-07-31T16:23:18.402Z,1.98
2022-07-31T16:25:46.672Z,3.80
2022-07-31T16:28:15.216Z,2.45
2022-07-31T16:30:45.712Z,3.10
2022-07-31T16:33:14.060Z,3.05
2022-07-31T16:35:42.075Z,2.22
2022-07-31T16:38:10.290Z,2.15
2022-07-31T16:40:38.432Z,2.72
2022-07-31T16:43:47.393Z,1.95
2022-07-31T16:45:57.517Z,1.67
2022-07-31T16:48:25.879Z,2.17
2022-07-31T16:50:54.946Z,1.38
2022-07-31T16:54:10.534Z,2.03
2022-07-31T16:56:13.068Z,4.00
2022-07-31T16:58:41.422Z,1.40
2022-07-31T17:01:57.434Z,2.10
2022-07-31T17:04:03.102Z,2.28
2022-07-31T17:06:36.548Z,2.67
2022-07-31T17:09:16.869Z,1.83
2022-07-31T17:11:48.312Z,3.15
2022-07-31T17:14:17.359Z,2.30
2022-07-31T17:16:48.993Z,3.65
2022-07-31T17:19:42.491Z,3.08
2022-07-31T17:22:07.769Z,2.25
2022-07-31T17:24:37.828Z,2.03
2022-07-31T17:27:08.335Z,3.03
2022-07-31T17:29:37.150Z,2.15
2022-07-31T17:32:06.932Z,1.98
2022-07-31T17:34:36.346Z,1.80
2022-07-31T17:37:05.215Z,2.03
2022-07-31T17:39:34.051Z,1.23
2022-07-31T17:42:02.188Z,3.45
2022-07-31T17:44:31.030Z,3.63
2022-07-31T17:47:00.159Z,2.28
2022-07-31T17:49:34.615Z,2.75
2022-07-31T17:52:02.771Z,2.00
2022-07-31T17:54:32.553Z,2.65
2022-07-31T17:57:01.234Z,3.25
2022-07-31T17:59:29.741Z,5.13
2022-07-31T18:02:00.829Z,2.42
2022-07-31T18:04:29.881Z,1.75
2022-07-31T18:07:00.172Z,2.45
2022-07-31T18:09:29.386Z,3.00
2022-07-31T18:11:58.758Z,2.40
2022-07-31T18:14:27.062Z,1.77
2022-07-31T18:16:55.811Z,1.70
2022-07-31T18:19:24.580Z,2.45
2022-07-31T18:21:53.136Z,2.30
2022-07-31T18:24:23.485Z,2.33
2022-07-31T18:26:53.795Z,3.55
2022-07-31T18:29:22.414Z,2.10
2022-07-31T18:31:50.659Z,1.98
2022-07-31T18:34:18.807Z,1.83
2022-07-31T18:36:54.241Z,1.80
2022-07-31T18:39:24.717Z,3.10
2022-07-31T18:41:53.105Z,1.95
2022-07-31T18:44:22.048Z,1.92
2022-07-31T18:46:50.635Z,3.10
2022-07-31T18:51:00.585Z,2.35
2022-07-31T18:52:08.966Z,2.40
2022-07-31T18:54:39.438Z,2.42
2022-07-31T18:57:07.789Z,2.28
2022-07-31T18:59:35.906Z,1.77
2022-07-31T19:02:04.648Z,2.60
2022-07-31T19:04:34.192Z,2.08
2022-07-31T19:07:02.581Z,2.08
2022-07-31T19:09:31.636Z,2.90
2022-07-31T19:12:06.217Z,1.95
2022-07-31T19:14:36.374Z,3.30
2022-07-31T19:17:04.526Z,4.45
2022-07-31T19:19:52.598Z,5.32
2022-07-31T19:22:20.927Z,1.65
2022-07-31T19:24:49.506Z,3.17
2022-07-31T19:27:19.599Z,1.85
2022-07-31T19:29:47.757Z,3.60
2022-07-31T19:32:15.812Z,2.83
2022-07-31T19:34:47.991Z,2.40
2022-07-31T19:37:20.431Z,2.25
2022-07-31T19:39:48.604Z,3.53
2022-07-31T19:42:18.503Z,1.88
2022-07-31T19:44:46.582Z,2.30
2022-07-31T19:47:14.765Z,2.40
2022-07-31T19:49:44.684Z,2.20
2022-07-31T19:52:12.976Z,2.55
2022-07-31T19:54:41.088Z,2.75
2022-07-31T19:57:10.820Z,1.98
2022-07-31T19:59:40.547Z,2.50
2022-07-31T20:02:08.933Z,2.80
2022-07-31T20:04:37.712Z,2.28
2022-07-31T20:07:05.961Z,3.70
2022-07-31T20:09:34.091Z,2.20
2022-07-31T20:12:02.598Z,2.05
2022-07-31T20:14:31.006Z,2.60
2022-07-31T20:17:00.580Z,2.13
2022-07-31T20:19:28.866Z,2.75
2022-07-31T20:21:57.564Z,2.10
2022-07-31T20:24:27.021Z,2.28
2022-07-31T20:26:55.375Z,2.55
2022-07-31T20:29:23.614Z,3.15
2022-07-31T20:31:53.506Z,2.53
2022-07-31T20:34:24.632Z,4.60
2022-07-31T20:36:52.860Z,2.30
2022-07-31T20:39:24.531Z,2.85
2022-07-31T20:42:03.163Z,3.72
2022-07-31T20:44:31.717Z,2.92
2022-07-31T20:46:59.764Z,2.38
2022-07-31T20:49:34.866Z,2.35
2022-07-31T20:52:04.987Z,3.75
2022-07-31T20:54:34.154Z,1.92
2022-07-31T20:57:03.345Z,2.58
2022-07-31T20:59:31.607Z,2.88
2022-07-31T21:01:59.707Z,2.90
2022-07-31T21:04:29.161Z,2.47
2022-07-31T21:06:57.378Z,2.55
2022-07-31T21:09:25.588Z,2.97
2022-07-31T21:11:53.868Z,2.45
2022-07-31T21:14:21.905Z,3.88
2022-07-31T21:16:50.032Z,3.90
2022-07-31T21:19:19.209Z,3.83
2022-07-31T21:21:50.807Z,3.38
2022-07-31T21:24:19.576Z,4.00
2022-07-31T21:26:48.409Z,2.70
2022-07-31T21:29:19.665Z,2.92
2022-07-31T21:31:50.006Z,4.43
2022-07-31T21:34:19.052Z,3.30
2022-07-31T21:36:50.287Z,3.50
2022-07-31T21:39:19.714Z,3.00
2022-07-31T21:41:48.239Z,3.42
2022-07-31T21:44:18.694Z,3.30
2022-07-31T21:46:51.762Z,3.78
2022-07-31T21:49:21.542Z,4.40
2022-07-31T21:51:52.129Z,4.50
2022-07-31T21:54:20.127Z,5.97
2022-07-31T21:56:48.406Z,3.75
2022-07-31T21:59:16.436Z,3.92
2022-07-31T22:02:08.126Z,4.03
2022-07-31T22:04:34.917Z,3.03
2022-07-31T22:07:22.258Z,3.22
2022-07-31T22:09:50.422Z,3.75
2022-07-31T22:12:18.390Z,3.60
2022-07-31T22:14:47.041Z,4.85
2022-07-31T22:17:15.338Z,3.10
2022-07-31T22:19:47.480Z,5.13
2022-07-31T22:22:18.351Z,4.15
2022-07-31T22:24:46.890Z,4.32
2022-07-31T22:27:33.424Z,4.15
2022-07-31T22:30:02.341Z,4.13
2022-07-31T22:32:30.759Z,3.90
2022-07-31T22:34:59.047Z,4.13
2022-07-31T22:37:29.501Z,4.00
2022-07-31T22:39:58.977Z,5.22
2022-07-31T22:42:27.834Z,4.07
2022-07-31T22:44:56.459Z,3.35
2022-07-31T22:47:27.111Z,3.65
2022-07-31T22:49:56.308Z,3.05
2022-07-31T22:52:24.405Z,2.95
2022-07-31T22:55:05.394Z,4.13
2022-07-31T22:57:33.591Z,3.95
2022-07-31T23:00:01.635Z,3.83
2022-07-31T23:02:29.872Z,3.60
2022-07-31T23:04:58.065Z,3.60
2022-07-31T23:07:26.189Z,3.40
2022-07-31T23:09:54.535Z,3.38
2022-07-31T23:12:28.219Z,3.90
2022-07-31T23:14:56.532Z,3.83
2022-07-31T23:17:24.992Z,4.47
2022-07-31T23:19:53.872Z,4.05
2022-07-31T23:22:33.019Z,4.07
2022-07-31T23:25:02.654Z,3.50
2022-07-31T23:27:32.343Z,5.00
2022-07-31T23:30:00.787Z,3.75
2022-07-31T23:32:29.498Z,3.97
2022-07-31T23:34:57.626Z,5.22
2022-07-31T23:37:25.602Z,4.60
2022-07-31T23:39:53.692Z,4.45
2022-07-31T23:42:48.813Z,3.50
2022-07-31T23:45:18.442Z,5.95
2022-07-31T23:47:48.022Z,3.72
2022-07-31T23:50:16.781Z,3.97
2022-07-31T23:52:45.555Z,3.78
2022-07-31T23:55:13.978Z,4.80
2022-07-31T23:57:42.286Z,3.88
